Lee, Florida
Current Conditions -  °F | °C
As of 2:35 PM on Thursday 23 Oct 2014 (Local Time) from K24J Reporting Station
Clear Clear  
Wind Chill: 75°   Ceiling: Unl
Heat Index: 75°   Visibility: 10mi
Dew Point: 46°   Wind: 7mph
Humidity: 36%   Direction: 40°NE
Pressure: 30.03"   Gusts: NA
Location:  30.42°N, 83.3°W
Report Text: K24J 231835Z AUTO 04006KT 10SM CLR 24/08 A3003 RMK AO1
Loading
Personal Weather Stations






























Interactive Weather Map New forecast layout! Learn more

10-Day Weather Forecast

Advertisements
Track Severe Weather on mobile